Time;durP1;ratioP1;P1;durP2;ratioP2;P2;SDS_P1;SDS_P2;PMS_P1;PMS_P2;Temp;Humidity;BMP_temperature;BMP_pressure;BME280_temperature;BME280_humidity;BME280_pressure;Samples;Min_cycle;Max_cycle;Signal;HPM_P1;HPM_P2
2023/07/05 00:01:28;;;;;;;15.07;8.02;;;18.10;99.90;;;;;;5097897;28;20470;-77
2023/07/05 00:03:54;;;;;;;12.13;7.13;;;18.00;99.90;;;;;;5095941;28;20539;-76
2023/07/05 00:06:19;;;;;;;15.32;7.47;;;18.00;99.90;;;;;;5096469;28;20119;-77
2023/07/05 00:08:45;;;;;;;14.18;6.45;;;18.00;99.90;;;;;;5096022;28;20086;-76
2023/07/05 00:11:12;;;;;;;11.27;7.18;;;18.10;99.90;;;;;;5096954;28;20032;-76
2023/07/05 00:13:38;;;;;;;16.27;8.05;;;18.10;99.90;;;;;;5097834;28;20035;-76
2023/07/05 00:16:04;;;;;;;15.77;8.40;;;18.20;99.90;;;;;;5097165;28;20032;-76
2023/07/05 00:18:30;;;;;;;14.98;7.63;;;18.20;99.90;;;;;;5096924;28;20035;-76
2023/07/05 00:21:05;;;;;;;13.93;7.85;;;18.20;99.90;;;;;;5097146;28;20028;-76
2023/07/05 00:23:33;;;;;;;12.52;8.07;;;18.20;99.90;;;;;;5097556;28;20024;-76
2023/07/05 00:25:58;;;;;;;12.88;7.45;;;18.10;99.90;;;;;;5096947;28;20031;-76
2023/07/05 00:28:24;;;;;;;12.55;8.10;;;18.10;99.90;;;;;;5096612;28;20028;-76
2023/07/05 00:30:50;;;;;;;14.50;7.70;;;18.20;99.90;;;;;;5095570;28;20388;-75
2023/07/05 00:33:16;;;;;;;14.65;7.88;;;18.10;99.90;;;;;;5097188;28;20074;-76
2023/07/05 00:35:52;;;;;;;13.43;7.90;;;18.00;99.90;;;;;;5096524;28;20116;-77
2023/07/05 00:38:19;;;;;;;13.95;7.93;;;17.90;99.90;;;;;;5096878;28;20460;-77
2023/07/05 00:40:46;;;;;;;14.18;7.85;;;17.80;99.90;;;;;;5096341;28;20028;-77
2023/07/05 00:43:13;;;;;;;13.38;7.82;;;17.80;99.90;;;;;;5097247;28;20111;-77
2023/07/05 00:45:38;;;;;;;12.90;7.25;;;17.70;99.90;;;;;;5096502;28;20384;-77
2023/07/05 00:48:04;;;;;;;10.70;6.55;;;17.70;99.90;;;;;;5096626;28;20036;-77
2023/07/05 00:50:45;;;;;;;14.05;7.85;;;17.70;99.90;;;;;;5096410;28;20025;-77
2023/07/05 00:53:11;;;;;;;11.20;6.55;;;17.70;99.90;;;;;;5095220;28;20044;-76
2023/07/05 00:55:39;;;;;;;9.70;6.07;;;17.60;99.90;;;;;;5096029;28;20102;-77
2023/07/05 00:58:05;;;;;;;10.32;5.50;;;17.60;99.90;;;;;;5096333;28;20034;-77
2023/07/05 01:00:31;;;;;;;12.07;6.28;;;17.60;99.90;;;;;;5096200;28;20111;-77
2023/07/05 01:03:01;;;;;;;13.95;6.13;;;17.60;99.90;;;;;;5096722;28;20028;-78
2023/07/05 01:05:29;;;;;;;8.60;4.97;;;17.60;99.90;;;;;;5094995;28;20107;-77
2023/07/05 01:07:55;;;;;;;9.52;5.28;;;17.60;99.90;;;;;;5095944;28;20069;-77
2023/07/05 01:10:23;;;;;;;10.60;4.68;;;17.70;99.90;;;;;;5096083;28;20527;-76
2023/07/05 01:13:00;;;;;;;10.02;5.20;;;17.70;99.90;;;;;;5095233;28;20031;-77
2023/07/05 01:15:39;;;;;;;11.68;4.80;;;17.70;99.90;;;;;;5094963;28;20020;-77
2023/07/05 01:18:31;;;;;;;9.38;4.50;;;17.60;99.90;;;;;;5096053;28;20028;-76
2023/07/05 01:21:10;;;;;;;6.88;4.05;;;17.60;99.90;;;;;;5096508;28;20362;-76
2023/07/05 01:23:41;;;;;;;7.68;3.92;;;17.50;99.90;;;;;;5096411;28;20074;-76
2023/07/05 01:26:40;;;;;;;9.73;4.28;;;17.50;99.90;;;;;;5095807;28;20410;-76
2023/07/05 01:29:18;;;;;;;5.32;3.67;;;17.50;99.90;;;;;;5095542;28;20472;-76
2023/07/05 01:31:54;;;;;;;7.03;3.65;;;17.50;99.90;;;;;;5095844;28;20020;-77
2023/07/05 01:34:33;;;;;;;6.45;3.65;;;17.60;99.90;;;;;;5095772;28;20024;-77
2023/07/05 01:36:59;;;;;;;5.75;3.60;;;17.60;99.90;;;;;;5094160;28;20110;-77
2023/07/05 01:39:24;;;;;;;5.95;3.40;;;17.70;99.90;;;;;;5094184;28;20056;-77
2023/07/05 01:41:50;;;;;;;7.85;3.58;;;17.60;99.90;;;;;;5095557;28;20032;-76
2023/07/05 01:44:17;;;;;;;7.32;3.47;;;17.60;99.90;;;;;;5095496;28;20356;-76
2023/07/05 01:47:10;;;;;;;7.10;3.25;;;17.60;99.90;;;;;;5095721;28;20078;-76
2023/07/05 01:50:03;;;;;;;5.85;3.63;;;17.70;99.90;;;;;;5094421;28;20119;-76
2023/07/05 01:52:57;;;;;;;5.57;3.70;;;17.70;99.90;;;;;;5095712;28;20028;-76
2023/07/05 01:55:34;;;;;;;6.72;3.65;;;17.70;99.90;;;;;;5082766;28;20458;-77
2023/07/05 01:58:08;;;;;;;5.85;3.67;;;17.70;99.90;;;;;;5095571;28;20099;-76
2023/07/05 02:00:37;;;;;;;5.53;3.53;;;17.60;99.90;;;;;;5095223;28;20376;-76
2023/07/05 02:03:08;;;;;;;6.10;3.47;;;17.60;99.90;;;;;;5093433;28;20385;-76
2023/07/05 02:05:34;;;;;;;9.60;3.45;;;17.70;99.90;;;;;;5095047;28;20032;-76
2023/07/05 02:08:00;;;;;;;7.43;3.70;;;17.70;99.90;;;;;;5094748;28;20025;-76
2023/07/05 02:10:27;;;;;;;5.90;3.83;;;17.70;99.90;;;;;;5094969;28;20028;-76
2023/07/05 02:12:54;;;;;;;6.57;3.47;;;17.70;99.90;;;;;;5093604;28;20028;-76
2023/07/05 02:15:21;;;;;;;4.30;3.05;;;17.70;99.90;;;;;;5094922;28;20051;-76
2023/07/05 02:17:47;;;;;;;4.63;3.05;;;17.80;99.90;;;;;;5094562;28;20036;-75
2023/07/05 02:20:13;;;;;;;4.57;2.60;;;17.90;99.90;;;;;;5095139;28;20036;-76
2023/07/05 02:22:38;;;;;;;3.83;2.72;;;17.90;99.90;;;;;;5093423;28;20024;-76
2023/07/05 02:25:05;;;;;;;6.18;2.58;;;17.90;99.90;;;;;;5094226;28;20047;-76
2023/07/05 02:27:31;;;;;;;3.95;2.58;;;17.90;99.90;;;;;;5094426;28;20020;-76
2023/07/05 02:29:57;;;;;;;4.53;2.60;;;17.90;99.90;;;;;;5094948;28;20375;-76
2023/07/05 02:32:23;;;;;;;4.05;2.47;;;17.80;99.90;;;;;;5094260;28;20060;-77
2023/07/05 02:34:49;;;;;;;7.03;1.98;;;17.80;99.90;;;;;;5092948;28;20035;-76
2023/07/05 02:37:15;;;;;;;5.47;2.00;;;17.90;99.90;;;;;;5094435;28;20028;-76
2023/07/05 02:39:41;;;;;;;3.50;1.90;;;17.90;99.90;;;;;;5094863;28;20107;-75
2023/07/05 02:42:07;;;;;;;3.80;2.20;;;17.80;99.90;;;;;;5094124;28;20107;-76
2023/07/05 02:44:33;;;;;;;4.20;2.03;;;17.80;99.90;;;;;;5093506;28;20044;-75
2023/07/05 02:46:59;;;;;;;4.18;1.90;;;17.80;99.90;;;;;;5094801;28;20528;-75
2023/07/05 02:49:25;;;;;;;3.13;2.15;;;17.80;99.90;;;;;;5092793;28;20032;-76
2023/07/05 02:51:51;;;;;;;2.90;1.90;;;17.90;99.90;;;;;;5092978;28;20024;-75
2023/07/05 02:54:17;;;;;;;2.03;1.48;;;17.90;99.90;;;;;;5093944;28;20032;-76
2023/07/05 02:56:42;;;;;;;3.83;1.70;;;17.80;99.90;;;;;;5094088;28;20059;-75
2023/07/05 02:59:08;;;;;;;3.42;1.30;;;17.80;99.90;;;;;;5094054;28;20028;-75
2023/07/05 03:01:33;;;;;;;3.53;1.80;;;17.70;99.90;;;;;;5093762;28;20081;-75
2023/07/05 03:03:59;;;;;;;3.95;1.58;;;17.70;99.90;;;;;;5094009;28;20145;-75
2023/07/05 03:06:25;;;;;;;5.10;1.77;;;17.60;99.90;;;;;;5076005;28;20373;-75
2023/07/05 03:08:50;;;;;;;2.63;1.30;;;17.60;99.90;;;;;;5093945;28;20032;-76
2023/07/05 03:11:16;;;;;;;3.55;1.30;;;17.50;99.90;;;;;;5092937;28;20020;-75
2023/07/05 03:13:42;;;;;;;4.18;2.13;;;17.50;99.90;;;;;;5093315;28;20028;-76
2023/07/05 03:16:07;;;;;;;4.25;2.10;;;17.40;99.90;;;;;;5093414;28;20031;-76
2023/07/05 03:18:33;;;;;;;4.70;1.73;;;17.30;99.90;;;;;;5092636;28;20082;-76
2023/07/05 03:20:59;;;;;;;3.63;1.70;;;17.20;99.90;;;;;;5093572;28;20120;-75
2023/07/05 03:23:25;;;;;;;4.22;2.10;;;17.00;99.90;;;;;;5092344;28;20025;-76
2023/07/05 03:25:54;;;;;;;4.05;1.90;;;16.90;99.90;;;;;;5093993;28;20422;-75
2023/07/05 03:28:20;;;;;;;3.63;2.10;;;16.80;99.90;;;;;;5093810;28;20103;-75
2023/07/05 03:30:55;;;;;;;3.67;1.88;;;16.80;99.90;;;;;;5092591;28;20066;-76
2023/07/05 03:33:20;;;;;;;3.65;2.22;;;16.70;99.90;;;;;;5093264;28;20132;-76
2023/07/05 03:36:00;;;;;;;2.70;1.88;;;16.70;99.80;;;;;;5092888;28;20479;-76
2023/07/05 03:38:28;;;;;;;2.85;2.05;;;16.60;99.90;;;;;;5093693;28;20063;-75
2023/07/05 03:40:59;;;;;;;3.17;1.70;;;16.50;99.90;;;;;;5093578;28;20107;-75
2023/07/05 03:43:26;;;;;;;4.82;1.95;;;16.60;99.90;;;;;;5091989;28;20036;-75
2023/07/05 03:45:52;;;;;;;3.80;1.80;;;16.60;99.90;;;;;;5093555;28;20048;-76
2023/07/05 03:48:19;;;;;;;3.00;1.90;;;16.50;99.90;;;;;;5093342;28;20036;-75
2023/07/05 03:50:45;;;;;;;4.00;1.65;;;16.50;99.90;;;;;;5092440;28;20032;-75
2023/07/05 03:53:11;;;;;;;3.83;1.88;;;16.50;99.90;;;;;;5093522;28;20032;-76
2023/07/05 03:55:37;;;;;;;4.68;2.20;;;16.50;99.90;;;;;;5093132;28;20502;-75
2023/07/05 03:58:02;;;;;;;4.78;2.00;;;16.40;99.90;;;;;;5092396;28;20372;-76
2023/07/05 04:00:28;;;;;;;4.45;2.08;;;16.40;99.90;;;;;;5092070;28;20028;-75
2023/07/05 04:02:54;;;;;;;2.85;1.65;;;16.30;99.90;;;;;;5059231;28;20032;-76
2023/07/05 04:05:20;;;;;;;3.05;2.15;;;16.40;99.90;;;;;;5093542;28;20042;-76
2023/07/05 04:07:46;;;;;;;7.60;2.30;;;16.30;99.90;;;;;;5093453;28;20033;-76
2023/07/05 04:10:12;;;;;;;4.93;2.38;;;16.30;99.90;;;;;;5093350;28;20521;-76
2023/07/05 04:12:38;;;;;;;5.47;2.30;;;16.30;99.90;;;;;;5092374;28;20032;-76
2023/07/05 04:15:04;;;;;;;3.15;1.70;;;16.20;99.90;;;;;;5093280;28;20054;-76
2023/07/05 04:17:30;;;;;;;3.58;2.38;;;16.20;99.90;;;;;;5093227;28;20085;-76
2023/07/05 04:19:56;;;;;;;4.70;2.90;;;16.10;99.90;;;;;;5093264;28;20032;-75
2023/07/05 04:22:21;;;;;;;3.75;2.20;;;16.10;99.90;;;;;;5058158;28;20032;-75
2023/07/05 04:24:47;;;;;;;3.92;2.25;;;16.10;99.90;;;;;;5093039;28;20031;-75
2023/07/05 04:27:14;;;;;;;9.57;2.58;;;16.00;99.90;;;;;;5095976;28;20031;-76
2023/07/05 04:29:40;;;;;;;4.97;2.40;;;16.10;99.90;;;;;;5095372;28;20035;-76
2023/07/05 04:32:06;;;;;;;3.38;2.05;;;16.00;99.90;;;;;;5096838;28;20032;-75
2023/07/05 04:34:32;;;;;;;6.32;2.83;;;16.10;99.90;;;;;;5096787;28;20133;-75
2023/07/05 04:36:58;;;;;;;5.97;2.75;;;16.10;99.90;;;;;;5096717;28;20028;-76
2023/07/05 04:39:24;;;;;;;5.22;2.85;;;16.10;99.90;;;;;;5096737;28;20082;-76
2023/07/05 04:41:49;;;;;;;6.10;3.05;;;16.10;99.90;;;;;;5096688;28;20028;-75
2023/07/05 04:44:15;;;;;;;5.45;2.53;;;16.10;99.90;;;;;;5096510;28;20028;-76
2023/07/05 04:46:41;;;;;;;5.78;3.10;;;16.10;99.90;;;;;;5096439;28;20048;-76
2023/07/05 04:49:07;;;;;;;4.97;2.70;;;16.10;99.90;;;;;;5078383;28;20081;-76
2023/07/05 04:51:32;;;;;;;3.80;2.65;;;16.10;99.90;;;;;;5096205;28;20035;-76
2023/07/05 04:53:58;;;;;;;5.47;2.80;;;16.00;99.50;;;;;;5096662;28;20036;-76
2023/07/05 04:56:24;;;;;;;5.93;3.17;;;16.00;99.40;;;;;;5095486;28;20032;-76
2023/07/05 04:58:50;;;;;;;5.28;3.17;;;16.00;99.30;;;;;;5095035;28;20028;-76
2023/07/05 05:01:18;;;;;;;5.65;2.75;;;16.00;99.70;;;;;;5095939;28;20054;-76
2023/07/05 05:03:44;;;;;;;7.70;3.10;;;16.00;99.60;;;;;;5096173;28;20028;-76
2023/07/05 05:06:09;;;;;;;6.00;2.88;;;16.00;99.70;;;;;;5095011;28;20157;-76
2023/07/05 05:08:35;;;;;;;7.60;3.30;;;15.90;99.90;;;;;;5096194;28;20035;-76
2023/07/05 05:11:03;;;;;;;6.55;2.80;;;15.90;99.90;;;;;;5078060;28;20028;-76
2023/07/05 05:13:31;;;;;;;5.25;3.00;;;15.90;99.90;;;;;;5096147;28;20082;-76
2023/07/05 05:15:57;;;;;;;5.57;3.20;;;16.00;99.90;;;;;;5095982;28;20024;-76
2023/07/05 05:18:24;;;;;;;4.60;2.88;;;16.00;99.80;;;;;;5094959;28;20457;-76
2023/07/05 05:20:50;;;;;;;7.60;2.88;;;16.00;99.90;;;;;;5096240;28;20032;-76
2023/07/05 05:23:15;;;;;;;6.45;3.13;;;16.00;99.90;;;;;;5095591;28;20125;-77
2023/07/05 05:25:42;;;;;;;5.28;3.13;;;16.00;99.90;;;;;;5095683;28;20119;-77
2023/07/05 05:28:09;;;;;;;5.68;3.00;;;16.10;99.90;;;;;;5095832;28;20024;-77
2023/07/05 05:30:35;;;;;;;4.38;2.85;;;16.10;99.90;;;;;;5094951;28;20032;-77
2023/07/05 05:33:02;;;;;;;6.28;2.72;;;16.20;99.60;;;;;;5095705;28;20035;-77
2023/07/05 05:35:28;;;;;;;7.30;2.95;;;16.20;99.30;;;;;;5094019;28;20031;-77
2023/07/05 05:37:54;;;;;;;5.78;3.00;;;16.20;99.10;;;;;;5094589;28;20043;-77
2023/07/05 05:40:19;;;;;;;5.65;2.90;;;16.20;99.50;;;;;;5095224;28;20460;-77
2023/07/05 05:42:45;;;;;;;5.50;2.75;;;16.20;99.20;;;;;;5095719;28;20073;-77
2023/07/05 05:45:11;;;;;;;7.18;3.03;;;16.20;99.30;;;;;;5094797;28;20111;-77
2023/07/05 05:47:36;;;;;;;6.80;2.72;;;16.20;99.20;;;;;;5094883;28;20024;-77
2023/07/05 05:50:02;;;;;;;6.40;2.90;;;16.20;99.00;;;;;;5095206;28;20033;-77
2023/07/05 05:52:28;;;;;;;5.18;3.03;;;16.10;98.90;;;;;;5095306;28;20024;-76
2023/07/05 05:54:54;;;;;;;6.03;3.20;;;16.20;99.20;;;;;;5095348;28;20038;-77
2023/07/05 05:57:20;;;;;;;5.97;3.20;;;16.20;99.10;;;;;;5094188;28;20503;-76
2023/07/05 05:59:45;;;;;;;6.38;2.78;;;16.20;98.90;;;;;;5095042;28;20161;-77
2023/07/05 06:02:11;;;;;;;6.07;3.38;;;16.30;99.00;;;;;;5093847;28;20027;-76
2023/07/05 06:04:36;;;;;;;3.75;2.67;;;16.30;98.70;;;;;;5094066;28;20042;-75
2023/07/05 06:07:02;;;;;;;7.28;2.95;;;16.30;98.50;;;;;;5059606;28;20085;-75
2023/07/05 06:09:28;;;;;;;5.28;2.42;;;16.30;98.60;;;;;;5092753;28;20365;-75
2023/07/05 06:11:54;;;;;;;6.63;2.85;;;16.20;98.30;;;;;;5094219;28;20048;-77
2023/07/05 06:14:19;;;;;;;11.10;2.58;;;16.20;98.40;;;;;;5093235;28;20028;-74
2023/07/05 06:16:45;;;;;;;5.75;2.45;;;16.20;98.20;;;;;;5094256;28;20036;-75
2023/07/05 06:19:11;;;;;;;5.50;2.13;;;16.10;98.30;;;;;;5093815;28;20032;-76
2023/07/05 06:21:36;;;;;;;4.07;2.00;;;16.10;98.20;;;;;;5093488;28;20039;-76
2023/07/05 06:24:02;;;;;;;5.70;2.40;;;16.10;97.90;;;;;;5093611;28;20131;-76
2023/07/05 06:26:28;;;;;;;5.80;2.42;;;16.10;98.20;;;;;;5094188;28;20060;-75
2023/07/05 06:28:53;;;;;;;4.22;1.90;;;16.10;98.40;;;;;;5094014;28;20107;-75
2023/07/05 06:31:19;;;;;;;3.83;2.03;;;16.10;98.50;;;;;;5092673;28;20032;-75
2023/07/05 06:33:45;;;;;;;5.85;2.10;;;16.20;98.20;;;;;;5093832;28;20027;-75
2023/07/05 06:36:11;;;;;;;5.32;2.00;;;16.20;98.30;;;;;;5093520;28;20507;-78
2023/07/05 06:38:37;;;;;;;6.18;1.80;;;16.10;98.40;;;;;;5095397;28;20032;-78
2023/07/05 06:41:03;;;;;;;6.13;2.40;;;16.20;98.50;;;;;;5093681;28;20452;-78
2023/07/05 06:43:29;;;;;;;4.28;2.15;;;16.20;98.50;;;;;;5093396;28;20541;-81
2023/07/05 06:45:56;;;;;;;3.90;2.05;;;16.20;98.50;;;;;;5094108;28;20098;-77
2023/07/05 06:48:23;;;;;;;3.90;1.85;;;16.10;98.90;;;;;;5093366;28;20459;-76
2023/07/05 06:50:50;;;;;;;2.95;1.48;;;16.20;99.30;;;;;;5098258;28;20020;-80
2023/07/05 06:53:16;;;;;;;6.45;1.83;;;16.10;98.80;;;;;;5105219;28;20024;-80
2023/07/05 06:55:42;;;;;;;8.27;1.67;;;16.10;99.20;;;;;;5084255;28;20038;-81
2023/07/05 06:58:07;;;;;;;3.55;1.50;;;16.10;99.20;;;;;;5109049;28;20045;-81
2023/07/05 07:00:33;;;;;;;4.18;1.08;;;16.10;99.20;;;;;;5095829;28;20031;-76
2023/07/05 07:02:59;;;;;;;3.80;1.10;;;16.00;99.30;;;;;;5075932;28;20049;-74
2023/07/05 07:05:25;;;;;;;4.53;1.33;;;15.90;99.20;;;;;;5093481;28;20380;-74
2023/07/05 07:07:51;;;;;;;2.75;1.30;;;15.80;99.90;;;;;;5093713;28;20106;-75
2023/07/05 07:10:17;;;;;;;4.38;1.10;;;15.70;99.90;;;;;;5093859;28;20028;-74
2023/07/05 07:12:43;;;;;;;3.03;0.98;;;15.60;99.90;;;;;;5092294;28;20357;-75
2023/07/05 07:15:09;;;;;;;4.35;0.80;;;15.50;99.90;;;;;;5074672;28;20028;-73
2023/07/05 07:17:34;;;;;;;2.97;0.82;;;15.40;99.80;;;;;;5092632;28;20032;-73
2023/07/05 07:20:00;;;;;;;2.85;0.50;;;15.30;99.90;;;;;;5092498;28;20031;-77
2023/07/05 07:22:25;;;;;;;4.38;1.50;;;15.20;99.90;;;;;;5092738;28;20028;-74
2023/07/05 07:24:51;;;;;;;1.63;0.52;;;15.30;99.90;;;;;;5094572;28;20430;-73
2023/07/05 07:27:18;;;;;;;2.47;0.80;;;15.30;99.90;;;;;;5093174;28;20028;-81
2023/07/05 07:29:44;;;;;;;3.22;0.60;;;15.30;99.90;;;;;;5096013;28;20078;-80
2023/07/05 07:32:10;;;;;;;3.58;0.60;;;15.30;99.90;;;;;;5095020;28;20039;-76
2023/07/05 07:34:36;;;;;;;3.10;0.57;;;15.30;99.90;;;;;;5095109;28;20032;-78
2023/07/05 07:37:02;;;;;;;3.05;0.60;;;15.30;99.80;;;;;;5098596;28;20364;-82
2023/07/05 07:39:31;;;;;;;3.65;0.60;;;15.30;99.90;;;;;;5101106;28;20437;-81
2023/07/05 07:41:57;;;;;;;4.85;0.60;;;15.20;99.90;;;;;;5107354;28;20043;-80
2023/07/05 07:44:22;;;;;;;2.13;0.65;;;15.20;99.90;;;;;;5106342;28;20035;-81
2023/07/05 07:46:48;;;;;;;3.92;0.60;;;15.20;99.90;;;;;;5105648;28;20056;-79
2023/07/05 07:49:14;;;;;;;2.92;0.77;;;15.10;99.90;;;;;;5101009;28;20487;-80
2023/07/05 07:51:44;;;;;;;3.45;0.60;;;15.20;99.90;;;;;;5101223;28;20032;-83
2023/07/05 07:54:20;;;;;;;2.67;0.70;;;15.20;99.90;;;;;;5098756;28;20032;-83
2023/07/05 07:56:48;;;;;;;3.05;0.65;;;15.20;99.90;;;;;;5101951;28;20054;-83
2023/07/05 07:59:14;;;;;;;3.30;0.93;;;15.20;99.90;;;;;;5101083;28;20028;-83
2023/07/05 08:01:41;;;;;;;2.97;0.77;;;15.30;99.90;;;;;;5097535;28;20024;-75
2023/07/05 08:04:09;;;;;;;5.97;1.20;;;15.20;99.90;;;;;;5097786;28;20058;-77
2023/07/05 08:06:40;;;;;;;3.45;1.02;;;15.20;99.90;;;;;;5097176;28;20032;-76
2023/07/05 08:09:10;;;;;;;5.93;1.65;;;15.10;99.90;;;;;;5097306;28;20031;-76
2023/07/05 08:11:38;;;;;;;6.53;1.58;;;15.00;99.90;;;;;;5097493;28;20024;-77
2023/07/05 08:14:04;;;;;;;5.28;1.60;;;15.00;99.90;;;;;;5096974;28;20460;-82
2023/07/05 08:16:30;;;;;;;7.07;1.80;;;15.00;99.90;;;;;;5098233;28;20028;-79
2023/07/05 08:18:57;;;;;;;3.67;1.25;;;14.90;99.90;;;;;;5097021;28;20028;-82
2023/07/05 08:21:23;;;;;;;5.32;1.40;;;14.90;99.90;;;;;;5095979;28;20469;-79
2023/07/05 08:23:49;;;;;;;4.43;1.20;;;14.80;99.90;;;;;;5096883;28;20039;-85
2023/07/05 08:26:15;;;;;;;5.57;1.20;;;14.80;99.90;;;;;;5095867;28;20024;-83
2023/07/05 08:28:41;;;;;;;3.67;1.45;;;14.80;99.90;;;;;;5097810;28;20024;-83
2023/07/05 08:31:08;;;;;;;2.50;1.23;;;14.80;99.90;;;;;;5096619;28;20028;-84
2023/07/05 08:33:36;;;;;;;4.63;1.48;;;14.90;99.90;;;;;;5095966;28;20039;-81
2023/07/05 08:36:07;;;;;;;3.60;1.00;;;14.90;99.90;;;;;;5097690;28;20027;-81
2023/07/05 08:38:33;;;;;;;6.05;1.58;;;14.90;99.90;;;;;;5097135;28;20070;-83
2023/07/05 08:41:10;;;;;;;4.20;1.30;;;14.90;99.90;;;;;;5096739;28;20472;-82
2023/07/05 08:43:46;;;;;;;6.57;1.48;;;15.00;99.90;;;;;;5097131;28;20035;-81
2023/07/05 08:46:14;;;;;;;5.90;1.92;;;15.00;99.90;;;;;;5097166;28;20051;-78
2023/07/05 08:48:41;;;;;;;7.35;1.80;;;15.20;99.90;;;;;;5096953;28;20086;-83
2023/07/05 08:51:09;;;;;;;4.88;1.88;;;15.20;99.90;;;;;;5081998;28;20024;-81
2023/07/05 08:53:47;;;;;;;3.72;1.85;;;15.30;99.90;;;;;;5098423;28;20463;-84
2023/07/05 08:56:19;;;;;;;6.75;2.15;;;15.40;99.90;;;;;;5102955;28;20028;-81
2023/07/05 08:59:00;;;;;;;7.20;2.47;;;15.50;99.90;;;;;;5099165;28;20440;-79
2023/07/05 09:01:30;;;;;;;4.63;1.90;;;15.60;99.90;;;;;;5096384;28;20493;-78
2023/07/05 09:03:58;;;;;;;5.15;2.15;;;15.60;99.90;;;;;;5096102;28;20020;-82
2023/07/05 09:06:38;;;;;;;4.00;1.58;;;15.60;99.90;;;;;;5096620;28;20039;-82
2023/07/05 09:09:12;;;;;;;5.30;2.33;;;15.60;99.90;;;;;;5096430;28;20028;-79
2023/07/05 09:11:45;;;;;;;7.40;1.40;;;15.60;99.90;;;;;;5096514;28;20088;-78
2023/07/05 09:14:30;;;;;;;5.13;0.50;;;15.50;99.90;;;;;;5095667;28;20111;-75
2023/07/05 09:17:00;;;;;;;4.97;1.27;;;15.40;99.90;;;;;;5095812;28;20024;-76
2023/07/05 09:19:44;;;;;;;7.68;2.50;;;15.30;99.90;;;;;;5094459;28;20375;-76
2023/07/05 09:22:17;;;;;;;8.23;2.70;;;15.30;99.90;;;;;;5096050;28;20028;-77
2023/07/05 09:24:45;;;;;;;5.20;2.22;;;15.50;99.90;;;;;;5096383;28;20056;-81
2023/07/05 09:27:16;;;;;;;8.10;2.55;;;15.50;99.90;;;;;;5097013;28;20036;-81
2023/07/05 09:29:58;;;;;;;8.80;2.17;;;15.60;99.90;;;;;;5098990;28;20035;-81
2023/07/05 09:32:33;;;;;;;2.25;0.63;;;15.60;99.90;;;;;;5099790;28;20032;-81
2023/07/05 09:34:59;;;;;;;7.22;1.50;;;15.20;99.90;;;;;;5097323;28;20082;-82
2023/07/05 09:37:34;;;;;;;4.38;1.10;;;14.90;99.90;;;;;;5095543;28;20055;-80
2023/07/05 09:40:17;;;;;;;4.63;1.20;;;14.70;99.90;;;;;;5096670;28;20034;-79
2023/07/05 09:42:50;;;;;;;;;;;14.60;99.90;;;;;;5097788;28;20028;-81
2023/07/05 09:45:17;;;;;;;5.50;1.08;;;14.60;99.90;;;;;;5098894;28;19908;-84
2023/07/05 09:47:48;;;;;;;5.10;1.25;;;14.50;99.90;;;;;;5095784;28;20105;-78
2023/07/05 09:50:17;;;;;;;4.35;1.25;;;14.50;99.90;;;;;;5093774;28;20031;-78
2023/07/05 09:52:47;;;;;;;4.70;1.40;;;14.40;99.90;;;;;;5096516;28;20475;-82
2023/07/05 09:55:15;;;;;;;7.82;1.30;;;14.50;99.90;;;;;;5101787;28;20040;-81
2023/07/05 09:57:42;;;;;;;6.03;1.10;;;14.40;99.90;;;;;;5096209;28;20048;-81
2023/07/05 10:00:31;;;;;;;3.92;0.88;;;14.40;99.90;;;;;;5096271;28;20034;-82
2023/07/05 10:03:10;;;;;;;5.65;1.23;;;14.40;99.90;;;;;;5096418;28;20067;-78
2023/07/05 10:05:38;;;;;;;7.93;0.98;;;14.40;99.90;;;;;;5096994;28;20052;-81
2023/07/05 10:08:15;;;;;;;4.65;0.93;;;14.40;99.90;;;;;;5095860;28;20032;-84
2023/07/05 10:10:40;;;;;;;3.25;0.93;;;14.50;99.90;;;;;;5102118;28;20099;-83
2023/07/05 10:13:20;;;;;;;9.57;1.42;;;14.50;99.90;;;;;;5093462;28;20059;-83
2023/07/05 10:15:48;;;;;;;6.47;1.40;;;14.60;99.90;;;;;;5094405;28;20031;-82
2023/07/05 10:18:30;;;;;;;6.50;1.52;;;14.50;99.90;;;;;;5095056;28;20031;-83
2023/07/05 10:21:13;;;;;;;6.07;1.40;;;14.50;99.90;;;;;;5094893;28;20024;-82
2023/07/05 10:23:40;;;;;;;8.05;2.10;;;14.50;99.90;;;;;;5093812;28;20035;-81
2023/07/05 10:26:06;;;;;;;8.35;1.80;;;14.50;99.90;;;;;;5095641;28;20036;-81
2023/07/05 10:28:35;;;;;;;5.30;1.50;;;14.50;99.90;;;;;;5094002;28;20039;-82
2023/07/05 10:31:05;;;;;;;10.23;2.08;;;14.40;99.90;;;;;;5095034;28;20032;-81
2023/07/05 10:33:33;;;;;;;8.57;2.25;;;14.40;99.90;;;;;;5094456;28;20024;-82
2023/07/05 10:36:05;;;;;;;11.25;2.33;;;14.50;99.90;;;;;;5093254;28;20028;-82
2023/07/05 10:38:44;;;;;;;;;;;14.50;99.90;;;;;;5095183;28;20105;-81
2023/07/05 10:41:32;;;;;;;13.63;2.50;;;14.50;99.90;;;;;;5093993;28;20006;-83
2023/07/05 10:44:15;;;;;;;7.55;2.03;;;14.60;99.90;;;;;;5094519;28;20093;-81
2023/07/05 10:46:45;;;;;;;11.00;2.42;;;14.60;99.90;;;;;;5094286;28;20056;-81
2023/07/05 10:49:15;;;;;;;12.07;2.75;;;14.50;99.90;;;;;;5094519;28;20032;-80
2023/07/05 10:51:47;;;;;;;10.70;2.35;;;14.50;99.90;;;;;;5093041;28;20028;-81
2023/07/05 10:54:29;;;;;;;10.10;2.10;;;14.60;99.90;;;;;;5093840;28;20028;-81
2023/07/05 10:56:56;;;;;;;8.17;1.90;;;14.70;99.90;;;;;;5094488;28;20036;-80
2023/07/05 10:59:37;;;;;;;7.15;2.15;;;14.80;99.90;;;;;;5094006;28;20039;-80
2023/07/05 11:02:20;;;;;;;9.57;2.38;;;14.80;99.90;;;;;;5093066;28;20047;-81
2023/07/05 11:04:47;;;;;;;;;;;14.90;99.90;;;;;;5093212;28;20032;-81
2023/07/05 11:07:14;;;;;;;12.85;2.45;;;14.90;99.90;;;;;;5093723;28;19904;-81
2023/07/05 11:09:41;;;;;;;5.60;2.00;;;15.00;99.90;;;;;;5075832;28;20388;-81
2023/07/05 11:12:20;;;;;;;9.35;2.10;;;15.00;99.90;;;;;;5092597;28;20111;-81
2023/07/05 11:14:48;;;;;;;11.95;2.33;;;15.10;99.90;;;;;;5093899;28;20380;-80
2023/07/05 11:17:33;;;;;;;7.03;1.50;;;15.20;99.90;;;;;;5093557;28;20038;-82
2023/07/05 11:19:59;;;;;;;7.07;1.45;;;15.30;99.90;;;;;;5095315;28;20028;-82
2023/07/05 11:22:43;;;;;;;6.47;1.20;;;15.40;99.90;;;;;;5094405;28;20035;-82
2023/07/05 11:25:10;;;;;;;7.22;0.98;;;15.60;99.90;;;;;;5093996;28;20341;-83
2023/07/05 11:27:48;;;;;;;8.82;1.33;;;15.70;99.90;;;;;;5095902;28;20050;-82
2023/07/05 11:30:43;;;;;;;6.10;0.85;;;15.90;99.50;;;;;;5098298;28;20456;-82
2023/07/05 11:33:09;;;;;;;3.80;0.88;;;16.30;99.40;;;;;;5098253;28;20020;-81
2023/07/05 11:35:48;;;;;;;7.88;0.82;;;16.50;98.30;;;;;;5097837;28;20107;-83
2023/07/05 11:38:37;;;;;;;4.25;1.20;;;16.80;98.10;;;;;;5099102;28;20028;-82
2023/07/05 11:41:05;;;;;;;6.68;0.85;;;17.10;97.80;;;;;;5087459;28;20153;-82
2023/07/05 11:43:38;;;;;;;5.57;1.08;;;17.50;98.40;;;;;;5098968;28;20354;-83
2023/07/05 11:46:26;;;;;;;4.32;0.63;;;17.90;97.60;;;;;;5097687;28;20140;-84
2023/07/05 11:48:53;;;;;;;6.00;0.90;;;18.00;95.00;;;;;;5096301;28;20029;-84
2023/07/05 11:51:30;;;;;;;10.00;1.20;;;18.00;94.80;;;;;;5097080;28;20055;-82
2023/07/05 11:53:58;;;;;;;7.50;1.05;;;18.10;94.70;;;;;;5096748;28;20081;-84
2023/07/05 11:56:25;;;;;;;5.90;1.10;;;18.10;94.90;;;;;;5096718;28;20036;-84
2023/07/05 11:58:53;;;;;;;6.60;0.93;;;18.20;94.90;;;;;;5096598;28;20077;-82
2023/07/05 12:01:27;;;;;;;6.00;1.15;;;18.40;93.60;;;;;;5096734;28;20027;-84
2023/07/05 12:04:00;;;;;;;5.50;0.70;;;18.30;93.30;;;;;;5096835;28;20024;-83
2023/07/05 12:06:37;;;;;;;7.88;0.73;;;18.40;93.60;;;;;;5098002;28;20024;-83
2023/07/05 12:09:06;;;;;;;8.80;1.20;;;18.40;92.80;;;;;;5096856;28;20024;-82
2023/07/05 12:11:40;;;;;;;9.48;1.10;;;18.40;92.10;;;;;;5097750;28;20478;-83
2023/07/05 12:14:19;;;;;;;6.10;0.70;;;18.30;92.50;;;;;;5096881;28;20035;-83
2023/07/05 12:16:45;;;;;;;7.85;1.25;;;18.30;93.30;;;;;;5096247;28;20150;-83
2023/07/05 12:19:23;;;;;;;7.10;1.92;;;18.30;93.80;;;;;;5096162;28;20476;-82
2023/07/05 12:21:59;;;;;;;5.95;1.65;;;18.10;95.70;;;;;;5097870;28;20020;-82
2023/07/05 12:24:25;;;;;;;6.70;1.48;;;18.00;96.90;;;;;;5097023;28;20074;-82
2023/07/05 12:26:51;;;;;;;6.13;1.38;;;17.80;97.70;;;;;;5097158;28;20063;-82
2023/07/05 12:29:30;;;;;;;3.80;1.20;;;17.70;97.90;;;;;;5095780;28;20066;-82
2023/07/05 12:32:05;;;;;;;7.10;1.20;;;17.60;97.90;;;;;;5097308;28;20067;-82
2023/07/05 12:34:31;;;;;;;6.07;0.95;;;17.40;97.90;;;;;;5096190;28;20060;-82
2023/07/05 12:36:58;;;;;;;2.88;0.63;;;17.20;98.10;;;;;;5095629;28;20028;-82
2023/07/05 12:39:25;;;;;;;3.63;0.88;;;17.00;98.10;;;;;;5096545;28;20379;-82
2023/07/05 12:42:05;;;;;;;5.40;1.10;;;16.90;98.70;;;;;;5096846;28;20438;-82
2023/07/05 12:44:33;;;;;;;5.30;1.45;;;16.90;98.70;;;;;;5095380;28;20036;-82
2023/07/05 12:47:16;;;;;;;4.45;0.90;;;16.90;98.50;;;;;;5078896;28;20145;-79
2023/07/05 12:49:42;;;;;;;5.55;0.88;;;16.70;98.50;;;;;;5096552;28;20195;-83
2023/07/05 12:52:22;;;;;;;3.90;1.00;;;16.60;98.90;;;;;;5096552;28;20024;-83
2023/07/05 12:54:48;;;;;;;6.20;1.05;;;16.50;98.90;;;;;;5096575;28;20039;-83
2023/07/05 12:57:20;;;;;;;7.72;0.90;;;16.60;99.40;;;;;;5097342;28;20032;-82